createdAt,value
2018-11-27T00:00:44.969Z,100641.95
2018-11-27T00:03:14.602Z,100643.39
2018-11-27T00:05:56.477Z,100640.44
2018-11-27T00:08:38.104Z,100653.39
2018-11-27T00:11:20.174Z,100654.00
2018-11-27T00:14:07.857Z,100624.01
2018-11-27T00:16:50.265Z,100666.44
2018-11-27T00:19:31.804Z,100668.17
2018-11-27T00:22:13.210Z,100632.58
2018-11-27T00:24:43.076Z,100667.67
2018-11-27T00:27:24.492Z,100666.84
2018-11-27T00:29:54.394Z,100668.53
2018-11-27T00:32:24.264Z,100669.91
2018-11-27T00:35:21.813Z,100615.41
2018-11-27T00:38:04.329Z,100662.84
2018-11-27T00:40:46.081Z,100623.83
2018-11-27T00:43:27.610Z,100620.08
2018-11-27T00:46:09.424Z,100668.06
2018-11-27T00:48:57.660Z,100671.92
2018-11-27T00:51:39.828Z,100670.30
2018-11-27T00:54:21.619Z,100671.99
2018-11-27T00:57:03.332Z,100674.73
2018-11-27T00:59:45.010Z,100673.08
2018-11-27T01:02:32.935Z,100676.94
2018-11-27T01:05:15.458Z,100676.43
2018-11-27T01:07:56.846Z,100679.52
2018-11-27T01:10:38.428Z,100678.52
2018-11-27T01:13:08.301Z,100680.23
2018-11-27T01:15:49.887Z,100619.30
2018-11-27T01:18:31.200Z,100688.05
2018-11-27T01:21:19.081Z,100685.38
2018-11-27T01:24:01.201Z,100691.17
2018-11-27T01:26:43.247Z,100641.59
2018-11-27T01:29:25.013Z,100636.85
2018-11-27T01:32:13.531Z,100696.14
2018-11-27T01:34:55.048Z,100657.45
2018-11-27T01:37:43.817Z,100700.70
2018-11-27T01:40:26.727Z,100699.64
2018-11-27T01:42:57.607Z,100703.81
2018-11-27T01:45:39.844Z,100702.47
2018-11-27T01:48:21.420Z,100708.20
2018-11-27T01:51:03.121Z,100708.26
2018-11-27T01:53:45.125Z,100705.27
2018-11-27T01:56:26.961Z,100705.55
2018-11-27T01:59:14.661Z,100709.14
2018-11-27T02:01:56.453Z,100712.73
2018-11-27T02:04:38.192Z,100711.63
2018-11-27T02:07:19.730Z,100661.34
2018-11-27T02:10:01.809Z,100710.77
2018-11-27T02:12:31.650Z,100707.75
2018-11-27T02:15:15.390Z,100660.72
2018-11-27T02:17:57.617Z,100675.32
2018-11-27T02:20:27.538Z,100710.14
2018-11-27T02:23:09.890Z,100673.09
2018-11-27T02:25:40.216Z,100705.97
2018-11-27T02:28:22.532Z,100699.96
2018-11-27T02:31:04.070Z,100701.30
2018-11-27T02:33:45.873Z,100663.69
2018-11-27T02:36:15.926Z,100699.13
2018-11-27T02:38:45.857Z,100702.98
2018-11-27T02:41:15.795Z,100696.72
2018-11-27T02:44:03.464Z,100657.73
2018-11-27T02:46:33.266Z,100702.22
2018-11-27T02:49:15.758Z,100701.42
2018-11-27T02:51:45.617Z,100703.90
2018-11-27T02:54:27.263Z,100706.38
2018-11-27T02:56:57.131Z,100709.66
2018-11-27T02:59:39.254Z,100707.75
2018-11-27T03:02:21.201Z,100654.48
2018-11-27T03:05:03.711Z,100703.08
2018-11-27T03:07:33.556Z,100708.80
2018-11-27T03:10:03.846Z,100715.35
2018-11-27T03:12:45.521Z,100658.61
2018-11-27T03:15:27.354Z,100715.04
2018-11-27T03:17:57.804Z,100721.02
2018-11-27T03:20:39.835Z,100676.72
2018-11-27T03:23:33.384Z,100692.75
2018-11-27T03:26:14.887Z,100668.86
2018-11-27T03:28:56.750Z,100724.80
2018-11-27T03:31:38.382Z,100708.64
2018-11-27T03:34:19.874Z,100737.91
2018-11-27T03:37:08.045Z,100739.00
2018-11-27T03:39:49.517Z,100744.47
2018-11-27T03:42:31.261Z,100718.55
2018-11-27T03:45:01.585Z,100748.57
2018-11-27T03:47:43.753Z,100743.64
2018-11-27T03:50:25.046Z,100747.49
2018-11-27T03:53:06.527Z,100711.37
2018-11-27T03:55:54.277Z,100754.36
2018-11-27T03:58:36.973Z,100762.56
2018-11-27T04:01:07.281Z,100763.14
2018-11-27T04:03:48.782Z,100719.86
2018-11-27T04:06:18.925Z,100769.69
2018-11-27T04:09:00.611Z,100762.86
2018-11-27T04:11:30.358Z,100768.61
2018-11-27T04:14:11.854Z,100725.73
2018-11-27T04:16:54.060Z,100718.98
2018-11-27T04:19:36.238Z,100730.17
2018-11-27T04:22:18.073Z,100781.89
2018-11-27T04:24:59.654Z,100782.23
2018-11-27T04:27:29.334Z,100781.80
2018-11-27T04:30:14.653Z,100779.66
2018-11-27T04:32:44.370Z,100779.23
2018-11-27T04:35:26.656Z,100781.78
2018-11-27T04:38:08.840Z,100785.13
2018-11-27T04:40:50.509Z,100723.00
2018-11-27T04:43:20.820Z,100784.23
2018-11-27T04:45:50.810Z,100788.43
2018-11-27T04:48:20.774Z,100784.42
2018-11-27T04:54:03.558Z,100783.53
2018-11-27T04:56:33.683Z,100782.25
2018-11-27T04:59:22.053Z,100793.03
2018-11-27T05:02:03.361Z,100797.75
2018-11-27T05:04:33.510Z,100794.27
2018-11-27T05:07:03.495Z,100793.29
2018-11-27T05:09:33.461Z,100804.85
2018-11-27T05:12:15.590Z,100807.11
2018-11-27T05:14:45.531Z,100810.48
2018-11-27T05:17:15.510Z,100812.73
2018-11-27T05:19:45.470Z,100809.28
2018-11-27T05:24:56.917Z,100812.12
2018-11-27T05:27:54.609Z,100812.21
2018-11-27T05:30:26.053Z,100814.45
2018-11-27T05:32:56.279Z,100822.95
2018-11-27T05:35:29.827Z,100817.02
2018-11-27T05:38:01.603Z,100826.59
2018-11-27T05:40:31.572Z,100825.02
2018-11-27T05:43:12.470Z,100817.14
2018-11-27T05:45:42.341Z,100821.53
2018-11-27T05:48:12.179Z,100824.30
2018-11-27T05:50:42.092Z,100835.50
2018-11-27T05:53:11.777Z,100831.18
2018-11-27T05:55:42.251Z,100835.57
2018-11-27T05:58:24.230Z,100841.31
2018-11-27T06:00:54.231Z,100844.88
2018-11-27T06:03:24.244Z,100850.08
2018-11-27T06:05:54.214Z,100851.73
2018-11-27T06:08:24.155Z,100857.48
2018-11-27T06:10:54.091Z,100856.68
2018-11-27T06:13:24.934Z,100870.86
2018-11-27T06:15:54.849Z,100870.05
2018-11-27T06:18:24.836Z,100874.41
2018-11-27T06:20:54.756Z,100869.81
2018-11-27T06:23:24.745Z,100871.44
2018-11-27T06:25:54.699Z,100882.06
2018-11-27T06:28:24.650Z,100880.70
2018-11-27T06:30:54.581Z,100881.80
2018-11-27T06:33:24.490Z,100885.31
2018-11-27T06:35:54.477Z,100889.67
2018-11-27T06:38:24.608Z,100899.77
2018-11-27T06:40:54.560Z,100897.58
2018-11-27T06:43:24.456Z,100902.47
2018-11-27T06:45:54.407Z,100901.35
2018-11-27T06:48:24.308Z,100902.98
2018-11-27T06:50:54.238Z,100911.67
2018-11-27T06:53:24.162Z,100909.75
2018-11-27T06:55:54.123Z,100917.09
2018-11-27T06:58:24.080Z,100917.07
2018-11-27T07:00:54.026Z,100918.14
2018-11-27T07:03:23.933Z,100925.20
2018-11-27T07:05:53.883Z,100926.53
2018-11-27T07:08:23.854Z,100931.69
2018-11-27T07:10:53.829Z,100930.30
2018-11-27T07:13:25.437Z,100932.47
2018-11-27T07:15:55.150Z,100945.50
2018-11-27T07:18:24.894Z,100944.67
2018-11-27T07:20:54.828Z,100951.42
2018-11-27T07:23:24.704Z,100962.30
2018-11-27T07:25:54.658Z,100972.08
2018-11-27T07:28:24.547Z,100975.30
2018-11-27T07:30:54.448Z,100974.17
2018-11-27T07:33:24.319Z,100971.67
2018-11-27T07:35:54.224Z,100969.73
2018-11-27T07:38:24.164Z,100965.87
2018-11-27T07:40:54.097Z,100978.12
2018-11-27T07:43:24.117Z,100982.73
2018-11-27T07:48:23.831Z,100979.13
2018-11-27T07:50:53.667Z,100983.45
2018-11-27T07:53:23.816Z,100977.14
2018-11-27T07:55:54.197Z,100974.38
2018-11-27T07:58:24.132Z,100981.69
2018-11-27T08:00:54.090Z,100978.91
2018-11-27T08:03:24.059Z,100976.69
2018-11-27T08:05:53.958Z,100978.27
2018-11-27T08:08:23.864Z,100987.77
2018-11-27T08:10:53.783Z,100980.09
2018-11-27T08:13:35.823Z,100921.14
2018-11-27T08:16:24.447Z,100983.81
2018-11-27T08:19:22.738Z,100987.81
2018-11-27T08:22:11.227Z,100986.37
2018-11-27T08:24:52.911Z,100988.75
2018-11-27T08:27:34.201Z,100993.61
2018-11-27T08:30:04.444Z,100995.44
2018-11-27T08:32:46.012Z,100994.53
2018-11-27T08:35:28.457Z,101000.72
2018-11-27T08:38:16.515Z,101009.91
2018-11-27T08:41:05.080Z,101003.83
2018-11-27T08:43:46.923Z,101008.93
2018-11-27T08:46:16.851Z,101008.59
2018-11-27T08:48:46.664Z,101015.92
2018-11-27T08:51:16.616Z,101012.02
2018-11-27T08:53:58.709Z,101017.41
2018-11-27T08:56:28.983Z,101020.88
2018-11-27T08:58:59.103Z,101016.16
2018-11-27T09:01:40.551Z,101014.44
2018-11-27T09:04:10.934Z,101023.64
2018-11-27T09:06:52.530Z,100977.81
2018-11-27T09:09:34.289Z,101030.57
2018-11-27T09:12:16.075Z,101028.27
2018-11-27T09:14:46.139Z,101028.16
2018-11-27T09:17:28.394Z,101030.83
2018-11-27T09:19:58.366Z,101029.32
2018-11-27T09:22:28.346Z,101036.66
2018-11-27T09:24:58.257Z,101039.57
2018-11-27T09:27:28.216Z,101039.48
2018-11-27T09:29:58.114Z,101049.83
2018-11-27T09:32:39.407Z,101049.73
2018-11-27T09:35:09.401Z,101043.34
2018-11-27T09:37:51.053Z,101044.69
2018-11-27T09:40:33.248Z,101046.80
2018-11-27T09:43:14.855Z,101045.94
2018-11-27T09:45:45.733Z,101046.96
2018-11-27T09:48:15.593Z,101059.81
2018-11-27T09:50:45.497Z,101056.98
2018-11-27T09:53:16.447Z,101054.17
2018-11-27T09:55:46.293Z,101048.86
2018-11-27T09:58:16.228Z,101049.63
2018-11-27T10:00:46.088Z,101045.67
2018-11-27T10:03:16.820Z,101038.72
2018-11-27T10:05:46.691Z,101035.33
2018-11-27T10:08:16.637Z,101039.34
2018-11-27T10:10:46.569Z,101046.91
2018-11-27T10:13:16.508Z,101043.27
2018-11-27T10:15:46.387Z,101032.51
2018-11-27T10:18:16.271Z,101031.07
2018-11-27T10:20:46.151Z,101023.59
2018-11-27T10:23:16.438Z,101023.05
2018-11-27T10:25:46.325Z,101018.08
2018-11-27T10:28:16.300Z,101015.58
2018-11-27T10:31:05.984Z,101013.59
2018-11-27T10:33:36.244Z,101020.64
2018-11-27T10:36:06.212Z,101020.61
2018-11-27T10:38:36.165Z,101017.25
2018-11-27T10:41:18.940Z,100988.10
2018-11-27T10:44:01.278Z,101028.70
2018-11-27T10:46:31.151Z,101030.25
2018-11-27T10:49:13.728Z,101024.40
2018-11-27T10:51:43.619Z,101015.55
2018-11-27T10:54:25.695Z,101024.29
2018-11-27T10:56:55.820Z,101017.42
2018-11-27T10:59:37.747Z,101021.04
2018-11-27T11:02:24.387Z,100982.00
2018-11-27T11:04:54.696Z,101033.21
2018-11-27T11:07:36.966Z,101033.50
2018-11-27T11:10:18.753Z,101041.13
2018-11-27T11:13:01.310Z,101051.23
2018-11-27T11:15:31.250Z,101052.00
2018-11-27T11:18:13.142Z,101049.50
2018-11-27T11:20:43.562Z,101037.41
2018-11-27T11:23:26.014Z,101005.11
2018-11-27T11:26:08.310Z,101053.15
2018-11-27T11:28:38.282Z,101051.73
2018-11-27T11:31:08.492Z,101050.33
2018-11-27T11:33:51.504Z,101047.50
2018-11-27T11:36:21.361Z,101051.34
2018-11-27T11:39:03.188Z,101052.70
2018-11-27T11:41:45.342Z,100992.04
2018-11-27T11:44:15.449Z,101051.84
2018-11-27T11:46:57.365Z,101050.72
2018-11-27T11:49:39.185Z,100997.67
2018-11-27T11:52:21.365Z,101049.34
2018-11-27T11:55:03.235Z,100992.94
2018-11-27T11:57:53.758Z,101048.77
2018-11-27T12:00:43.166Z,101045.98
2018-11-27T12:03:25.136Z,101051.72
2018-11-27T12:05:55.012Z,101049.98
2018-11-27T12:08:36.651Z,101052.66
2018-11-27T12:11:06.804Z,101052.62
2018-11-27T12:13:49.125Z,101052.80
2018-11-27T12:16:30.814Z,101017.52
2018-11-27T12:19:01.249Z,101059.87
2018-11-27T12:21:43.375Z,101050.60
2018-11-27T12:24:25.453Z,101038.61
2018-11-27T12:26:55.547Z,101075.12
2018-11-27T12:29:25.504Z,101078.69
2018-11-27T12:32:07.916Z,101079.73
2018-11-27T12:34:37.957Z,101074.00
2018-11-27T12:37:07.901Z,101078.37
2018-11-27T12:39:37.861Z,101081.73
2018-11-27T12:42:20.256Z,101085.68
2018-11-27T12:45:02.649Z,101085.72
2018-11-27T12:47:32.558Z,101084.97
2018-11-27T12:50:15.395Z,101092.38
2018-11-27T12:55:39.269Z,101096.20
2018-11-27T12:58:21.221Z,101043.66
2018-11-27T13:01:03.115Z,101062.61
2018-11-27T13:03:46.304Z,101096.45
2018-11-27T13:06:35.442Z,101099.50
2018-11-27T13:09:17.995Z,101096.50
2018-11-27T13:11:48.008Z,101109.19
2018-11-27T13:14:29.768Z,101102.86
2018-11-27T13:17:11.825Z,101102.86
2018-11-27T13:19:42.054Z,101108.68
2018-11-27T13:22:12.114Z,101104.31
2018-11-27T13:24:54.346Z,101104.31
2018-11-27T13:27:36.372Z,101097.98
2018-11-27T13:30:21.220Z,101097.48
2018-11-27T13:33:06.312Z,101104.67
2018-11-27T13:35:36.650Z,101099.03
2018-11-27T13:38:18.374Z,101096.14
2018-11-27T13:41:00.626Z,101092.93
2018-11-27T13:43:43.015Z,101086.72
2018-11-27T13:46:24.949Z,101093.44
2018-11-27T13:49:07.136Z,101093.86
2018-11-27T13:51:56.454Z,101044.64
2018-11-27T13:54:26.412Z,101092.09
2018-11-27T13:56:56.344Z,101098.98
2018-11-27T13:59:26.373Z,101096.84
2018-11-27T14:02:09.293Z,101087.85
2018-11-27T14:04:51.569Z,101095.58
2018-11-27T14:07:33.400Z,101093.95
2018-11-27T14:10:15.640Z,101094.75
2018-11-27T14:12:58.158Z,101103.81
2018-11-27T14:15:39.821Z,101069.55
2018-11-27T14:18:10.070Z,101109.91
2018-11-27T14:20:51.925Z,101109.91
2018-11-27T14:23:34.394Z,101110.41
2018-11-27T14:26:16.146Z,101104.35
2018-11-27T14:28:57.949Z,101115.59
2018-11-27T14:31:28.313Z,101112.59
2018-11-27T14:34:10.194Z,101079.67
2018-11-27T14:36:52.278Z,101122.77
2018-11-27T14:39:34.221Z,101082.98
2018-11-27T14:42:04.179Z,101121.39
2018-11-27T14:44:46.245Z,101122.52
2018-11-27T14:47:16.219Z,101130.23
2018-11-27T14:49:46.190Z,101121.75
2018-11-27T14:52:28.346Z,101128.86
2018-11-27T14:54:58.291Z,101134.09
2018-11-27T14:57:40.211Z,101112.50
2018-11-27T15:00:22.589Z,101104.42
2018-11-27T15:03:05.279Z,101144.66
2018-11-27T15:05:54.423Z,101142.52
2018-11-27T15:08:24.424Z,101139.87
2018-11-27T15:11:06.735Z,101144.30
2018-11-27T15:13:48.957Z,101137.79
2018-11-27T15:16:30.375Z,101150.48
2018-11-27T15:19:00.600Z,101140.17
2018-11-27T15:21:42.125Z,101140.72
2018-11-27T15:24:23.673Z,101139.41
2018-11-27T15:26:53.730Z,101146.61
2018-11-27T15:29:23.704Z,101149.37
2018-11-27T15:31:53.631Z,101152.72
2018-11-27T15:34:35.298Z,101152.75
2018-11-27T15:37:16.862Z,101151.43
2018-11-27T15:39:46.900Z,101151.48
2018-11-27T15:42:16.907Z,101141.45
2018-11-27T15:44:59.417Z,101146.25
2018-11-27T15:47:41.317Z,101143.38
2018-11-27T15:50:23.264Z,101138.63
2018-11-27T15:53:05.729Z,101138.80
2018-11-27T15:55:58.627Z,101135.17
2018-11-27T15:58:40.202Z,101133.98
2018-11-27T16:01:22.218Z,101062.47
2018-11-27T16:04:04.317Z,101133.80
2018-11-27T16:06:34.435Z,101128.77
2018-11-27T16:09:16.491Z,101136.31
2018-11-27T16:11:58.953Z,101087.02
2018-11-27T16:14:29.426Z,101133.87
2018-11-27T16:16:59.440Z,101143.28
2018-11-27T16:19:29.682Z,101146.70
2018-11-27T16:21:59.598Z,101146.48
2018-11-27T16:24:29.547Z,101145.78
2018-11-27T16:26:59.514Z,101150.80
2018-11-27T16:29:50.118Z,101151.44
2018-11-27T16:32:31.401Z,101144.65
2018-11-27T16:35:14.425Z,101144.45
2018-11-27T16:37:46.353Z,101148.37
2018-11-27T16:40:18.838Z,101156.34
2018-11-27T16:42:48.854Z,101153.69
2018-11-27T16:45:39.184Z,101160.25
2018-11-27T16:48:09.196Z,101170.10
2018-11-27T16:50:39.025Z,101176.95
2018-11-27T16:53:09.251Z,101170.70
2018-11-27T16:55:39.427Z,101173.16
2018-11-27T16:58:09.350Z,101179.45
2018-11-27T17:00:39.279Z,101179.44
2018-11-27T17:03:10.030Z,101169.91
2018-11-27T17:05:52.389Z,101183.81
2018-11-27T17:08:22.757Z,101185.73
2018-11-27T17:10:53.046Z,101192.27
2018-11-27T17:13:23.005Z,101186.02
2018-11-27T17:15:53.207Z,101183.55
2018-11-27T17:18:23.578Z,101183.27
2018-11-27T17:20:53.521Z,101190.38
2018-11-27T17:23:23.470Z,101187.11
2018-11-27T17:26:11.750Z,101181.38
2018-11-27T17:28:41.719Z,101178.92
2018-11-27T17:31:14.864Z,101166.92
2018-11-27T17:34:05.143Z,101178.09
2018-11-27T17:36:36.045Z,101188.17
2018-11-27T17:39:11.422Z,101175.64
2018-11-27T17:41:41.568Z,101170.73
2018-11-27T17:44:17.135Z,101181.64
2018-11-27T17:46:47.124Z,101181.63
2018-11-27T17:49:17.127Z,101194.70
2018-11-27T17:51:47.152Z,101198.55
2018-11-27T17:54:17.160Z,101189.00
2018-11-27T17:56:47.207Z,101193.34
2018-11-27T17:59:17.179Z,101202.34
2018-11-27T18:01:47.220Z,101199.04
2018-11-27T18:04:17.153Z,101188.95
2018-11-27T18:06:47.110Z,101186.21
2018-11-27T18:09:17.082Z,101184.83
2018-11-27T18:11:47.033Z,101186.47
2018-11-27T18:14:16.935Z,101199.27
2018-11-27T18:16:46.907Z,101209.09
2018-11-27T18:19:16.868Z,101208.80
2018-11-27T18:21:46.852Z,101206.59
2018-11-27T18:24:16.830Z,101201.97
2018-11-27T18:26:46.760Z,101201.95
2018-11-27T18:29:16.738Z,101187.45
2018-11-27T18:31:46.713Z,101190.45
2018-11-27T18:34:28.917Z,101186.08
2018-11-27T18:36:58.891Z,101189.87
2018-11-27T18:39:29.111Z,101184.67
2018-11-27T18:42:10.825Z,101177.33
2018-11-27T18:44:40.905Z,101169.13
2018-11-27T18:47:11.452Z,101173.25
2018-11-27T18:49:41.401Z,101173.81
2018-11-27T18:52:22.904Z,101188.28
2018-11-27T18:54:53.340Z,101186.39
2018-11-27T18:57:23.322Z,101182.28
2018-11-27T18:59:53.311Z,101174.66
2018-11-27T19:02:23.326Z,101173.85
2018-11-27T19:04:53.370Z,101179.03
2018-11-27T19:07:23.365Z,101171.67
2018-11-27T19:09:53.368Z,101184.78
2018-11-27T19:12:23.339Z,101177.98
2018-11-27T19:14:53.296Z,101179.34
2018-11-27T19:17:23.161Z,101185.65
2018-11-27T19:20:05.094Z,101177.45
2018-11-27T19:22:35.328Z,101181.84
2018-11-27T19:25:07.028Z,101193.59
2018-11-27T19:27:37.045Z,101194.41
2018-11-27T19:30:15.999Z,101193.30
2018-11-27T19:32:44.768Z,101186.77
2018-11-27T19:35:17.479Z,101188.16
2018-11-27T19:37:48.350Z,101190.06
2018-11-27T19:40:20.061Z,101200.44
2018-11-27T19:42:50.227Z,101199.63
2018-11-27T19:45:26.119Z,101203.70
2018-11-27T19:47:56.677Z,101207.25
2018-11-27T19:50:28.705Z,101216.81
2018-11-27T19:52:58.847Z,101215.96
2018-11-27T19:55:28.866Z,101216.52
2018-11-27T19:57:58.928Z,101216.53
2018-11-27T20:00:29.974Z,101221.44
2018-11-27T20:03:00.397Z,101217.06
2018-11-27T20:05:42.510Z,101213.52
2018-11-27T20:08:16.587Z,101221.45
2018-11-27T20:10:46.780Z,101224.42
2018-11-27T20:13:17.000Z,101216.80
2018-11-27T20:15:46.999Z,101213.53
2018-11-27T20:18:17.012Z,101214.06
2018-11-27T20:20:47.014Z,101222.77
2018-11-27T20:23:17.003Z,101223.61
2018-11-27T20:25:46.976Z,101226.60
2018-11-27T20:28:16.964Z,101225.50
2018-11-27T20:30:47.047Z,101219.50
2018-11-27T20:33:17.313Z,101218.69
2018-11-27T20:35:47.348Z,101218.13
2018-11-27T20:38:17.359Z,101228.23
2018-11-27T20:40:48.455Z,101231.20
2018-11-27T20:43:17.602Z,101225.48
2018-11-27T20:45:47.648Z,101230.13
2018-11-27T20:48:19.958Z,101223.58
2018-11-27T20:50:52.341Z,101221.41
2018-11-27T20:53:22.945Z,101225.23
2018-11-27T20:55:53.018Z,101220.84
2018-11-27T20:58:23.034Z,101217.31
2018-11-27T21:00:53.823Z,101209.41
2018-11-27T21:03:23.901Z,101216.48
2018-11-27T21:05:54.004Z,101215.66
2018-11-27T21:08:23.969Z,101220.55
2018-11-27T21:10:54.081Z,101212.11
2018-11-27T21:13:24.091Z,101222.73
2018-11-27T21:15:54.167Z,101220.55
2018-11-27T21:18:24.138Z,101221.63
2018-11-27T21:20:54.160Z,101217.28
2018-11-27T21:23:24.206Z,101221.36
2018-11-27T21:25:56.434Z,101225.17
2018-11-27T21:28:24.262Z,101227.63
2018-11-27T21:30:54.254Z,101230.34
2018-11-27T21:33:24.656Z,101236.87
2018-11-27T21:35:54.645Z,101229.80
2018-11-27T21:38:24.694Z,101229.80
2018-11-27T21:40:54.684Z,101235.80
2018-11-27T21:43:24.707Z,101236.88
2018-11-27T21:45:54.705Z,101234.16
2018-11-27T21:48:24.790Z,101228.44
2018-11-27T21:50:58.714Z,101239.59
2018-11-27T21:53:28.887Z,101239.31
2018-11-27T21:55:58.876Z,101236.31
2018-11-27T21:58:29.128Z,101237.40
2018-11-27T22:00:59.124Z,101242.58
2018-11-27T22:03:29.088Z,101238.48
2018-11-27T22:05:59.109Z,101227.05
2018-11-27T22:08:29.131Z,101228.14
2018-11-27T22:10:59.112Z,101230.86
2018-11-27T22:13:29.117Z,101224.86
2018-11-27T22:15:59.167Z,101236.55
2018-11-27T22:18:29.149Z,101230.31
2018-11-27T22:20:59.216Z,101229.20
2018-11-27T22:23:29.246Z,101235.20
2018-11-27T22:25:59.314Z,101237.92
2018-11-27T22:28:29.333Z,101230.30
2018-11-27T22:30:59.376Z,101237.08
2018-11-27T22:33:29.389Z,101231.63
2018-11-27T22:35:59.385Z,101219.11
2018-11-27T22:38:29.329Z,101231.64
2018-11-27T22:40:59.357Z,101233.00
2018-11-27T22:43:29.268Z,101233.00
2018-11-27T22:45:59.315Z,101237.09
2018-11-27T22:48:29.302Z,101239.53
2018-11-27T22:50:59.266Z,101236.81
2018-11-27T22:53:29.261Z,101238.70
2018-11-27T22:56:00.314Z,101238.97
2018-11-27T22:58:29.278Z,101236.81
2018-11-27T23:00:59.297Z,101233.81
2018-11-27T23:03:29.309Z,101229.73
2018-11-27T23:05:59.350Z,101233.54
2018-11-27T23:08:29.326Z,101234.34
2018-11-27T23:10:59.323Z,101222.92
2018-11-27T23:13:29.327Z,101221.56
2018-11-27T23:15:59.348Z,101221.00
2018-11-27T23:18:29.246Z,101218.28
2018-11-27T23:20:59.185Z,101217.47
2018-11-27T23:23:29.223Z,101221.56
2018-11-27T23:25:59.285Z,101215.59
2018-11-27T23:28:29.739Z,101216.94
2018-11-27T23:30:59.845Z,101221.86
2018-11-27T23:33:30.356Z,101225.94
2018-11-27T23:36:00.366Z,101225.38
2018-11-27T23:38:30.312Z,101217.48
2018-11-27T23:41:00.285Z,101221.04
2018-11-27T23:43:30.276Z,101220.21
2018-11-27T23:46:00.366Z,101223.77
2018-11-27T23:48:30.364Z,101223.48
2018-11-27T23:51:00.394Z,101219.94
2018-11-27T23:53:30.342Z,101210.69
2018-11-27T23:56:00.301Z,101202.52
2018-11-27T23:58:30.295Z,101200.89
